Time;durP1;ratioP1;P1;durP2;ratioP2;P2;SDS_P1;SDS_P2;PMS_P1;PMS_P2;Temp;Humidity;BMP_temperature;BMP_pressure;BME280_temperature;BME280_humidity;BME280_pressure;Samples;Min_cycle;Max_cycle;Signal;HPM_P1;HPM_P2
2022/06/24 00:00:33;;;;;;;0.43;0.30;;;19.80;94.80;;;;;;5086409;28;20037;-84
2022/06/24 00:03:00;;;;;;;0.30;0.28;;;19.70;95.50;;;;;;5066234;28;20399;-84
2022/06/24 00:05:31;;;;;;;0.30;0.30;;;19.60;95.70;;;;;;5049728;28;20052;-80
2022/06/24 00:07:59;;;;;;;0.32;0.30;;;19.60;96.00;;;;;;5082502;28;20497;-80
2022/06/24 00:10:32;;;;;;;0.45;0.35;;;19.50;95.60;;;;;;5049810;28;20056;-84
2022/06/24 00:12:59;;;;;;;0.52;0.40;;;19.50;95.20;;;;;;5082714;28;20124;-80
2022/06/24 00:15:27;;;;;;;0.85;0.50;;;19.50;95.50;;;;;;5033060;28;20140;-83
2022/06/24 00:17:54;;;;;;;0.38;0.35;;;19.50;96.30;;;;;;5033027;28;20092;-81
2022/06/24 00:20:22;;;;;;;0.60;0.50;;;19.40;96.40;;;;;;5099425;28;20088;-84
2022/06/24 00:22:50;;;;;;;0.40;0.40;;;19.40;97.00;;;;;;5044814;28;20091;-84
2022/06/24 00:25:21;;;;;;;0.50;0.40;;;19.30;97.10;;;;;;5069853;28;20155;-84
2022/06/24 00:28:05;;;;;;;0.25;0.25;;;19.30;97.90;;;;;;5119524;28;20127;-80
2022/06/24 00:30:50;;;;;;;0.55;0.35;;;19.30;97.10;;;;;;5119997;28;20041;-84
2022/06/24 00:33:19;;;;;;;0.40;0.40;;;19.20;97.70;;;;;;5102517;28;20079;-79
2022/06/24 00:35:49;;;;;;;0.30;0.30;;;19.20;97.40;;;;;;5102900;28;20055;-79
2022/06/24 00:38:24;;;;;;;0.30;0.22;;;19.20;97.60;;;;;;5102525;28;20072;-80
2022/06/24 00:40:55;;;;;;;0.30;0.30;;;19.10;98.20;;;;;;5069322;28;20493;-80
2022/06/24 00:43:31;;;;;;;0.57;0.47;;;19.10;97.80;;;;;;5069367;28;20625;-79
2022/06/24 00:46:06;;;;;;;0.22;0.20;;;19.10;98.00;;;;;;5068812;28;20037;-83
2022/06/24 00:48:38;;;;;;;0.52;0.35;;;19.10;97.30;;;;;;5119345;28;20391;-84
2022/06/24 00:51:07;;;;;;;0.63;0.43;;;19.10;97.60;;;;;;5102227;28;20081;-79
2022/06/24 00:53:46;;;;;;;0.25;0.25;;;19.00;97.70;;;;;;5052879;28;20406;-84
2022/06/24 00:56:16;;;;;;;0.80;0.47;;;19.10;97.60;;;;;;5102282;28;20502;-80
2022/06/24 00:59:02;;;;;;;0.77;0.55;;;19.00;97.70;;;;;;5102579;28;20049;-80
2022/06/24 01:01:30;;;;;;;0.45;0.30;;;19.00;98.10;;;;;;5102628;28;20076;-79
2022/06/24 01:03:58;;;;;;;0.40;0.40;;;19.00;98.00;;;;;;5102199;28;20040;-84
2022/06/24 01:06:26;;;;;;;1.00;0.50;;;19.00;98.60;;;;;;5085803;28;20045;-80
2022/06/24 01:08:53;;;;;;;0.40;0.40;;;19.00;98.80;;;;;;5085495;28;20051;-82
2022/06/24 01:11:27;;;;;;;0.60;0.43;;;18.90;98.80;;;;;;5084838;28;20053;-80
2022/06/24 01:13:55;;;;;;;0.40;0.30;;;18.90;99.50;;;;;;5070822;28;20045;-83
2022/06/24 01:16:24;;;;;;;0.52;0.47;;;18.90;99.60;;;;;;5068281;28;20094;-83
2022/06/24 01:19:01;;;;;;;0.50;0.40;;;18.80;99.90;;;;;;5085210;28;20395;-80
2022/06/24 01:21:37;;;;;;;0.30;0.30;;;18.80;99.10;;;;;;5069260;28;20037;-84
2022/06/24 01:24:16;;;;;;;0.30;0.30;;;18.80;99.80;;;;;;5085290;28;20041;-84
2022/06/24 01:26:48;;;;;;;0.40;0.40;;;18.80;99.40;;;;;;5102022;28;20565;-84
2022/06/24 01:29:16;;;;;;;0.52;0.52;;;18.70;99.30;;;;;;5105880;28;20055;-80
2022/06/24 01:31:45;;;;;;;0.30;0.25;;;18.70;99.50;;;;;;5105981;28;20049;-79
2022/06/24 01:34:11;;;;;;;0.43;0.30;;;18.70;99.20;;;;;;5089303;28;20095;-84
2022/06/24 01:36:38;;;;;;;0.75;0.50;;;18.70;98.80;;;;;;5072644;28;20079;-84
2022/06/24 01:39:05;;;;;;;0.70;0.63;;;18.70;99.50;;;;;;5105608;28;20048;-84
2022/06/24 01:41:32;;;;;;;0.70;0.43;;;18.70;99.40;;;;;;5105985;28;20037;-84
2022/06/24 01:43:59;;;;;;;0.63;0.50;;;18.70;99.10;;;;;;5105371;28;20037;-80
2022/06/24 01:46:26;;;;;;;0.68;0.50;;;18.70;99.00;;;;;;5055444;28;20037;-84
2022/06/24 01:48:52;;;;;;;0.50;0.32;;;18.70;99.00;;;;;;5122739;28;20127;-84
2022/06/24 01:51:22;;;;;;;0.47;0.43;;;18.70;98.80;;;;;;5105395;28;20067;-79
2022/06/24 01:53:49;;;;;;;0.95;0.50;;;18.70;99.30;;;;;;5089222;28;20041;-84
2022/06/24 01:56:15;;;;;;;0.73;0.50;;;18.70;98.50;;;;;;5055275;28;20091;-84
2022/06/24 01:58:45;;;;;;;1.20;0.57;;;18.80;98.50;;;;;;5088875;28;20041;-84
2022/06/24 02:01:12;;;;;;;0.77;0.45;;;18.80;99.20;;;;;;5055590;28;20059;-79
2022/06/24 02:03:40;;;;;;;0.52;0.52;;;18.90;97.60;;;;;;5088573;28;20043;-79
2022/06/24 02:06:08;;;;;;;1.30;0.60;;;18.90;97.80;;;;;;5055130;28;20061;-79
2022/06/24 02:08:35;;;;;;;0.50;0.50;;;19.00;97.60;;;;;;5087860;28;20044;-79
2022/06/24 02:13:48;;;;;;;1.75;0.45;;;19.00;97.70;;;;;;5074661;28;20408;-79
2022/06/24 02:16:18;;;;;;;0.85;0.57;;;19.00;98.30;;;;;;5104901;28;20041;-84
2022/06/24 02:18:45;;;;;;;0.30;0.30;;;19.00;97.90;;;;;;5072009;28;20532;-80
2022/06/24 02:21:15;;;;;;;0.32;0.32;;;18.90;98.60;;;;;;5088086;28;20048;-84
2022/06/24 02:23:43;;;;;;;0.55;0.50;;;18.90;97.80;;;;;;5105127;28;20037;-84
2022/06/24 02:26:10;;;;;;;0.50;0.45;;;18.90;98.20;;;;;;5087951;28;20106;-79
2022/06/24 02:28:37;;;;;;;0.28;0.28;;;18.90;98.40;;;;;;5088247;28;20044;-84
2022/06/24 02:31:04;;;;;;;0.38;0.38;;;18.90;98.10;;;;;;5088053;28;20033;-80
2022/06/24 02:33:31;;;;;;;0.50;0.47;;;18.90;97.30;;;;;;5071597;28;20095;-79
2022/06/24 02:35:58;;;;;;;0.65;0.50;;;19.00;98.20;;;;;;5088194;28;20080;-84
2022/06/24 02:38:25;;;;;;;0.52;0.38;;;18.90;98.20;;;;;;5103608;28;20040;-84
2022/06/24 02:40:52;;;;;;;0.50;0.50;;;18.90;98.50;;;;;;5103964;28;20110;-84
2022/06/24 02:43:28;;;;;;;0.65;0.60;;;18.90;98.30;;;;;;5104081;28;20052;-79
2022/06/24 02:45:59;;;;;;;0.35;0.35;;;18.90;98.30;;;;;;5070990;28;20048;-84
2022/06/24 02:48:26;;;;;;;0.50;0.32;;;18.90;98.70;;;;;;5071321;28;20045;-84
2022/06/24 02:50:55;;;;;;;0.60;0.40;;;18.80;98.20;;;;;;5071096;28;20498;-79
2022/06/24 02:53:23;;;;;;;0.50;0.50;;;18.80;98.90;;;;;;5104093;28;20041;-84
2022/06/24 02:55:52;;;;;;;0.90;0.60;;;18.70;99.00;;;;;;5104108;28;20063;-84
2022/06/24 02:58:19;;;;;;;0.65;0.50;;;18.70;99.50;;;;;;5102667;28;20084;-84
2022/06/24 03:00:47;;;;;;;0.45;0.40;;;18.60;99.40;;;;;;5103957;28;20737;-79
2022/06/24 03:03:19;;;;;;;1.65;0.70;;;18.60;99.50;;;;;;5070498;28;20041;-84
2022/06/24 03:05:46;;;;;;;0.70;0.40;;;18.60;99.40;;;;;;5103928;28;20037;-84
2022/06/24 03:08:14;;;;;;;1.00;0.40;;;18.50;99.90;;;;;;5070343;28;20045;-79
2022/06/24 03:10:42;;;;;;;0.68;0.50;;;18.50;99.90;;;;;;5087282;28;20100;-79
2022/06/24 03:13:09;;;;;;;0.50;0.40;;;18.50;99.90;;;;;;5103679;28;20084;-84
2022/06/24 03:15:36;;;;;;;0.63;0.45;;;18.40;99.90;;;;;;5087121;28;20090;-83
2022/06/24 03:18:03;;;;;;;0.28;0.20;;;18.40;99.90;;;;;;5070500;28;20052;-79
2022/06/24 03:20:31;;;;;;;0.30;0.30;;;18.40;99.90;;;;;;5070205;28;20402;-79
2022/06/24 03:22:58;;;;;;;0.55;0.40;;;18.40;99.90;;;;;;5087226;28;20502;-79
2022/06/24 03:25:27;;;;;;;0.50;0.38;;;18.30;99.90;;;;;;5086598;28;20079;-81
2022/06/24 03:27:54;;;;;;;0.38;0.38;;;18.30;99.90;;;;;;5103420;28;20041;-79
2022/06/24 03:30:20;;;;;;;0.40;0.40;;;18.30;99.90;;;;;;5070322;28;20043;-79
2022/06/24 03:32:47;;;;;;;0.52;0.45;;;18.30;99.90;;;;;;5070260;28;20062;-79
2022/06/24 03:35:14;;;;;;;0.40;0.40;;;18.40;99.90;;;;;;5086382;28;20047;-79
2022/06/24 03:37:40;;;;;;;0.32;0.32;;;18.40;99.90;;;;;;5086700;28;20072;-79
2022/06/24 03:40:08;;;;;;;0.85;0.57;;;18.40;99.90;;;;;;5053223;28;20048;-80
2022/06/24 03:42:34;;;;;;;0.40;0.40;;;18.50;99.90;;;;;;5053423;28;20383;-79
2022/06/24 03:45:01;;;;;;;0.40;0.40;;;18.60;99.90;;;;;;5070374;28;20040;-80
2022/06/24 03:47:28;;;;;;;0.50;0.35;;;18.60;99.90;;;;;;5069461;28;20116;-79
2022/06/24 03:49:54;;;;;;;0.30;0.30;;;18.70;99.90;;;;;;5086083;28;20093;-79
2022/06/24 03:52:21;;;;;;;0.57;0.40;;;18.70;99.90;;;;;;5086168;28;20726;-84
2022/06/24 03:54:48;;;;;;;0.75;0.50;;;18.80;99.90;;;;;;5069800;28;20127;-83
2022/06/24 03:57:14;;;;;;;0.20;0.20;;;18.80;99.90;;;;;;5053511;28;20047;-80
2022/06/24 03:59:41;;;;;;;0.45;0.45;;;18.80;99.90;;;;;;5069963;28;20776;-84
2022/06/24 04:02:08;;;;;;;0.28;0.28;;;18.80;99.90;;;;;;5102746;28;20068;-79
2022/06/24 04:04:35;;;;;;;0.28;0.28;;;18.70;99.90;;;;;;5053140;28;20044;-84
2022/06/24 04:07:02;;;;;;;0.57;0.45;;;18.70;99.90;;;;;;5086411;28;20067;-83
2022/06/24 04:09:28;;;;;;;0.35;0.32;;;18.70;99.90;;;;;;5085841;28;20474;-79
2022/06/24 04:11:55;;;;;;;1.17;0.40;;;18.70;99.90;;;;;;5069765;28;20051;-79
2022/06/24 04:17:07;;;;;;;0.68;0.30;;;18.60;99.90;;;;;;5072448;28;20040;-79
2022/06/24 04:19:36;;;;;;;0.40;0.40;;;18.70;99.90;;;;;;5085448;28;20532;-79
2022/06/24 04:22:04;;;;;;;0.30;0.30;;;18.70;99.90;;;;;;5102759;28;20044;-84
2022/06/24 04:24:30;;;;;;;0.50;0.40;;;18.70;99.90;;;;;;5102283;28;20539;-79
2022/06/24 04:26:57;;;;;;;0.57;0.50;;;18.70;99.90;;;;;;5069034;28;20057;-84
2022/06/24 04:29:24;;;;;;;0.43;0.30;;;18.70;99.90;;;;;;5102137;28;20080;-84
2022/06/24 04:31:51;;;;;;;0.43;0.43;;;18.80;99.90;;;;;;5102649;28;20083;-79
2022/06/24 04:34:17;;;;;;;0.25;0.25;;;18.80;99.90;;;;;;5085647;28;20070;-83
2022/06/24 04:36:44;;;;;;;0.52;0.50;;;18.80;99.90;;;;;;5102395;28;20099;-84
2022/06/24 04:39:11;;;;;;;0.77;0.35;;;18.80;99.90;;;;;;5085634;28;20041;-84
2022/06/24 04:41:37;;;;;;;0.40;0.40;;;18.90;99.90;;;;;;5086009;28;20036;-84
2022/06/24 04:44:04;;;;;;;0.70;0.47;;;19.00;99.90;;;;;;5052644;28;20521;-79
2022/06/24 04:46:31;;;;;;;0.70;0.52;;;19.00;99.90;;;;;;5085676;28;20044;-79
2022/06/24 04:48:57;;;;;;;0.28;0.28;;;19.10;99.90;;;;;;5069181;28;20128;-80
2022/06/24 04:51:27;;;;;;;0.90;0.30;;;19.10;99.90;;;;;;5101708;28;20041;-84
2022/06/24 04:53:54;;;;;;;0.30;0.30;;;19.20;99.90;;;;;;5102346;28;20048;-84
2022/06/24 04:56:20;;;;;;;0.40;0.40;;;19.30;99.90;;;;;;5085343;28;20041;-83
2022/06/24 04:58:47;;;;;;;0.73;0.50;;;19.40;99.90;;;;;;5119005;28;20045;-79
2022/06/24 05:01:14;;;;;;;0.93;0.45;;;19.50;99.90;;;;;;5103270;28;20037;-84
2022/06/24 05:03:40;;;;;;;0.60;0.43;;;19.60;99.90;;;;;;5106222;28;20187;-84
2022/06/24 05:06:07;;;;;;;0.43;0.38;;;19.60;99.90;;;;;;5089773;28;20049;-84
2022/06/24 05:08:34;;;;;;;0.52;0.40;;;19.70;99.90;;;;;;5089396;28;20118;-84
2022/06/24 05:11:00;;;;;;;0.40;0.40;;;19.80;99.90;;;;;;5089485;28;20517;-80
2022/06/24 05:13:27;;;;;;;1.05;0.60;;;19.90;99.90;;;;;;5089310;28;20041;-79
2022/06/24 05:15:54;;;;;;;0.57;0.38;;;19.90;99.90;;;;;;5073092;28;20556;-79
2022/06/24 05:18:21;;;;;;;0.80;0.50;;;19.90;99.90;;;;;;5089768;28;20044;-84
2022/06/24 05:20:47;;;;;;;0.57;0.40;;;20.00;99.90;;;;;;5105806;28;20044;-83
2022/06/24 05:23:14;;;;;;;0.38;0.30;;;19.90;99.90;;;;;;5089265;28;20037;-84
2022/06/24 05:25:41;;;;;;;0.70;0.60;;;20.00;99.90;;;;;;5089247;28;20063;-79
2022/06/24 05:28:07;;;;;;;0.95;0.70;;;19.90;99.90;;;;;;5089111;28;20569;-79
2022/06/24 05:30:34;;;;;;;0.88;0.57;;;19.90;99.90;;;;;;5105470;28;20041;-83
2022/06/24 05:33:01;;;;;;;0.55;0.43;;;20.00;99.90;;;;;;5072310;28;20090;-83
2022/06/24 05:35:27;;;;;;;0.82;0.60;;;19.90;99.90;;;;;;5089041;28;20037;-80
2022/06/24 05:37:54;;;;;;;0.63;0.50;;;20.00;99.90;;;;;;5093974;28;20033;-79
2022/06/24 05:40:21;;;;;;;0.35;0.30;;;20.00;99.90;;;;;;5064253;28;20127;-84
2022/06/24 05:42:47;;;;;;;0.73;0.50;;;19.90;99.90;;;;;;5074719;28;20029;-84
2022/06/24 05:45:14;;;;;;;0.90;0.60;;;20.00;99.90;;;;;;5091918;28;20037;-79
2022/06/24 05:47:41;;;;;;;0.50;0.50;;;20.00;99.90;;;;;;5058604;28;20033;-85
2022/06/24 05:50:08;;;;;;;0.63;0.50;;;20.00;99.90;;;;;;5091236;28;20509;-79
2022/06/24 05:55:20;;;;;;;;;;;20.10;99.90;;;;;;5104144;28;20045;-80
2022/06/24 05:57:47;;;;;;;0.50;0.40;;;20.20;99.90;;;;;;5081175;28;19926;-85
2022/06/24 06:00:14;;;;;;;0.40;0.40;;;20.10;99.90;;;;;;5091982;28;20124;-85
2022/06/24 06:02:40;;;;;;;1.00;0.60;;;20.10;99.90;;;;;;5112473;28;20037;-85
2022/06/24 06:05:07;;;;;;;0.73;0.55;;;19.60;99.90;;;;;;5072261;28;20040;-80
2022/06/24 06:07:34;;;;;;;0.47;0.47;;;19.20;99.90;;;;;;5107272;28;20551;-86
2022/06/24 06:10:01;;;;;;;1.05;0.55;;;18.70;99.90;;;;;;5058502;28;20041;-88
2022/06/24 06:12:27;;;;;;;0.50;0.50;;;18.10;99.90;;;;;;5055689;28;20048;-82
2022/06/24 06:18:42;;;;;;;0.43;0.40;;;17.40;99.90;;;;;;5091105;28;20060;-81
2022/06/24 06:21:10;;;;;;;0.20;0.20;;;17.20;99.90;;;;;;5114729;28;20512;-89
2022/06/24 06:23:40;;;;;;;0.80;0.45;;;17.10;99.90;;;;;;5061004;28;20040;-82
2022/06/24 06:26:09;;;;;;;0.50;0.40;;;17.10;99.90;;;;;;5121514;28;20529;-82
2022/06/24 06:28:37;;;;;;;0.22;0.22;;;17.10;99.90;;;;;;5072274;28;20489;-82
2022/06/24 06:31:04;;;;;;;0.52;0.47;;;17.10;99.90;;;;;;5079518;28;20049;-82
2022/06/24 06:33:31;;;;;;;0.40;0.30;;;17.10;99.90;;;;;;5075699;28;20402;-89
2022/06/24 06:36:06;;;;;;;0.40;0.30;;;17.00;99.90;;;;;;5063581;28;20037;-89
2022/06/24 06:38:33;;;;;;;0.73;0.40;;;17.00;99.90;;;;;;5059619;28;20041;-89
2022/06/24 06:41:01;;;;;;;0.30;0.22;;;17.00;99.90;;;;;;5085762;28;20044;-89
2022/06/24 06:43:28;;;;;;;0.30;0.30;;;17.00;99.90;;;;;;5109415;28;20490;-82
2022/06/24 06:45:55;;;;;;;0.30;0.30;;;17.00;99.90;;;;;;5097644;28;20037;-89
2022/06/24 06:48:22;;;;;;;0.47;0.40;;;17.10;99.90;;;;;;5125756;28;20043;-89
2022/06/24 06:50:57;;;;;;;0.10;0.10;;;17.10;99.90;;;;;;5097762;28;20116;-83
2022/06/24 06:53:27;;;;;;;0.55;0.32;;;17.20;99.90;;;;;;5071276;28;20028;-83
2022/06/24 06:55:55;;;;;;;0.38;0.32;;;17.20;99.90;;;;;;5104833;28;20040;-89
2022/06/24 06:58:22;;;;;;;0.43;0.43;;;17.20;99.90;;;;;;5109236;28;20043;-82
2022/06/24 07:00:49;;;;;;;0.20;0.20;;;17.20;99.90;;;;;;5108546;28;20102;-90
2022/06/24 07:03:16;;;;;;;0.60;0.40;;;17.30;99.90;;;;;;5109051;28;20029;-90
2022/06/24 07:05:44;;;;;;;0.90;0.50;;;17.30;99.90;;;;;;5125071;28;20509;-83
2022/06/24 07:08:12;;;;;;;0.40;0.30;;;17.40;99.90;;;;;;5083312;28;20079;-83
2022/06/24 07:10:45;;;;;;;0.40;0.38;;;17.50;99.90;;;;;;5074072;28;20043;-83
2022/06/24 07:13:12;;;;;;;0.52;0.50;;;17.60;99.90;;;;;;5101469;28;20551;-83
2022/06/24 07:15:39;;;;;;;1.40;0.47;;;17.70;99.90;;;;;;5109350;28;20103;-83
2022/06/24 07:18:07;;;;;;;0.28;0.28;;;17.90;99.90;;;;;;5054189;28;20047;-89
2022/06/24 07:20:34;;;;;;;0.43;0.43;;;18.10;99.90;;;;;;5112123;28;20043;-83
2022/06/24 07:23:01;;;;;;;0.30;0.30;;;18.20;99.90;;;;;;5107579;28;20532;-83
2022/06/24 07:25:29;;;;;;;0.40;0.40;;;18.30;99.90;;;;;;5047529;28;20076;-90
2022/06/24 07:27:56;;;;;;;0.63;0.40;;;18.40;99.90;;;;;;5059433;28;20044;-89
2022/06/24 07:30:23;;;;;;;0.52;0.45;;;18.50;99.90;;;;;;5068205;28;20037;-89
2022/06/24 07:32:49;;;;;;;0.43;0.40;;;18.60;99.90;;;;;;5035650;28;20565;-90
2022/06/24 07:35:16;;;;;;;0.45;0.40;;;18.70;99.90;;;;;;5021881;28;20505;-83
2022/06/24 07:37:43;;;;;;;0.57;0.40;;;18.80;99.90;;;;;;5024442;28;20426;-83
2022/06/24 07:40:10;;;;;;;0.63;0.50;;;18.90;99.90;;;;;;5019690;28;20069;-84
2022/06/24 07:42:36;;;;;;;0.63;0.40;;;18.90;99.90;;;;;;5031212;28;20033;-83
2022/06/24 07:45:04;;;;;;;0.57;0.50;;;19.00;99.90;;;;;;5014360;28;20044;-83
2022/06/24 07:47:30;;;;;;;0.55;0.50;;;19.00;99.90;;;;;;5014521;28;20042;-82
2022/06/24 07:49:57;;;;;;;0.52;0.40;;;19.00;99.90;;;;;;5030509;28;20156;-87
2022/06/24 07:52:24;;;;;;;1.15;0.70;;;19.00;99.90;;;;;;5031227;28;20052;-87
2022/06/24 07:56:56;;;;;;;0.30;0.30;;;19.00;99.90;;;;;;5039586;28;20033;-83
2022/06/24 07:57:37;;;;;;;1.00;0.70;;;19.10;99.90;;;;;;5052713;28;20050;-83
2022/06/24 08:00:04;;;;;;;0.50;0.38;;;19.20;99.90;;;;;;5033789;28;20041;-88
2022/06/24 08:02:31;;;;;;;0.45;0.35;;;19.40;99.90;;;;;;5036329;28;20034;-83
2022/06/24 08:04:58;;;;;;;0.90;0.70;;;19.60;99.90;;;;;;5030624;28;20042;-88
2022/06/24 08:07:24;;;;;;;0.55;0.40;;;19.70;99.90;;;;;;5030796;28;20121;-87
2022/06/24 08:09:51;;;;;;;1.10;0.52;;;19.80;99.90;;;;;;5059325;28;20038;-89
2022/06/24 08:12:18;;;;;;;0.82;0.55;;;20.00;99.90;;;;;;5054883;28;20457;-84
2022/06/24 08:14:44;;;;;;;0.52;0.32;;;20.00;99.90;;;;;;5020158;28;20041;-87
2022/06/24 08:17:11;;;;;;;0.65;0.52;;;20.00;99.90;;;;;;5024857;28;20099;-82
2022/06/24 08:19:38;;;;;;;0.88;0.52;;;20.20;99.90;;;;;;5026344;28;20048;-86
2022/06/24 08:22:05;;;;;;;0.77;0.52;;;20.20;99.90;;;;;;5030323;28;20048;-87
2022/06/24 08:24:31;;;;;;;0.50;0.50;;;20.30;99.90;;;;;;5033639;28;20091;-82
2022/06/24 08:26:58;;;;;;;0.52;0.50;;;20.30;99.90;;;;;;5033023;28;20057;-85
2022/06/24 08:29:25;;;;;;;0.57;0.47;;;20.20;99.90;;;;;;5065434;28;20069;-82
2022/06/24 08:31:51;;;;;;;1.02;0.65;;;20.20;99.90;;;;;;5033067;28;20128;-86
2022/06/24 08:34:21;;;;;;;0.35;0.32;;;20.20;99.90;;;;;;5045946;28;20091;-87
2022/06/24 08:36:50;;;;;;;1.15;0.60;;;20.20;99.90;;;;;;5013981;28;20046;-86
2022/06/24 08:39:17;;;;;;;0.50;0.50;;;20.30;99.90;;;;;;5013612;28;20041;-87
2022/06/24 08:41:47;;;;;;;0.22;0.22;;;20.20;99.90;;;;;;5013733;28;20042;-82
2022/06/24 08:44:13;;;;;;;0.70;0.65;;;20.20;99.90;;;;;;5047647;28;20399;-82
2022/06/24 08:46:40;;;;;;;0.63;0.40;;;20.20;99.90;;;;;;5033283;28;20044;-86
2022/06/24 08:49:07;;;;;;;0.93;0.50;;;20.20;99.90;;;;;;5048913;28;20056;-85
2022/06/24 08:51:35;;;;;;;1.00;0.52;;;20.20;99.90;;;;;;5033218;28;20041;-85
2022/06/24 08:54:03;;;;;;;1.02;0.70;;;20.30;99.90;;;;;;5012916;28;20042;-83
2022/06/24 08:56:30;;;;;;;0.57;0.52;;;20.30;99.90;;;;;;5016689;28;20065;-85
2022/06/24 08:58:58;;;;;;;0.80;0.57;;;20.30;99.90;;;;;;5042137;28;20042;-81
2022/06/24 09:01:25;;;;;;;0.43;0.38;;;20.30;99.90;;;;;;5033115;28;20124;-82
2022/06/24 09:03:52;;;;;;;0.45;0.40;;;20.30;99.90;;;;;;5029559;28;20180;-85
2022/06/24 09:06:19;;;;;;;0.30;0.30;;;20.30;99.90;;;;;;5062282;28;20108;-81
2022/06/24 09:08:49;;;;;;;0.73;0.55;;;20.20;99.90;;;;;;5045890;28;20518;-80
2022/06/24 09:11:15;;;;;;;0.30;0.30;;;20.20;99.90;;;;;;5047755;28;20453;-84
2022/06/24 09:13:48;;;;;;;0.47;0.40;;;20.20;99.90;;;;;;5030867;28;20045;-81
2022/06/24 09:16:20;;;;;;;0.45;0.43;;;20.20;99.90;;;;;;5029031;28;20042;-84
2022/06/24 09:18:56;;;;;;;0.40;0.35;;;20.10;99.90;;;;;;5029005;28;20082;-80
2022/06/24 09:21:29;;;;;;;0.35;0.35;;;20.10;99.90;;;;;;5045607;28;20132;-84
2022/06/24 09:24:02;;;;;;;0.90;0.73;;;20.10;99.90;;;;;;5028970;28;20048;-84
2022/06/24 09:26:40;;;;;;;0.63;0.40;;;20.10;99.90;;;;;;5061606;28;20038;-84
2022/06/24 09:29:11;;;;;;;0.45;0.40;;;20.00;99.90;;;;;;5045320;28;20042;-81
2022/06/24 09:31:39;;;;;;;0.63;0.40;;;20.00;99.90;;;;;;5046036;28;20069;-81
2022/06/24 09:34:18;;;;;;;0.40;0.40;;;20.00;99.90;;;;;;5048589;28;20521;-81
2022/06/24 09:36:47;;;;;;;0.30;0.28;;;20.00;99.90;;;;;;5040576;28;20084;-81
2022/06/24 09:39:15;;;;;;;0.30;0.30;;;20.00;99.90;;;;;;5012412;28;20329;-84
2022/06/24 09:41:48;;;;;;;0.43;0.35;;;20.10;99.90;;;;;;5077952;28;20403;-84
2022/06/24 09:44:16;;;;;;;0.20;0.20;;;20.10;99.90;;;;;;5061375;28;20033;-84
2022/06/24 09:46:43;;;;;;;0.25;0.25;;;20.20;99.90;;;;;;5044787;28;20405;-84
2022/06/24 09:49:14;;;;;;;0.35;0.32;;;20.30;99.90;;;;;;5048324;28;20037;-80
2022/06/24 09:51:45;;;;;;;0.35;0.35;;;20.40;99.90;;;;;;5015966;28;20062;-80
2022/06/24 09:54:14;;;;;;;0.28;0.28;;;20.40;99.90;;;;;;5048731;28;20042;-84
2022/06/24 09:56:44;;;;;;;0.30;0.30;;;20.40;99.90;;;;;;5034606;28;20096;-84
2022/06/24 10:02:00;;;;;;;0.30;0.17;;;20.50;99.90;;;;;;5048652;28;20048;-81
2022/06/24 10:04:28;;;;;;;0.20;0.20;;;20.60;99.90;;;;;;5031953;28;20044;-85
2022/06/24 10:06:56;;;;;;;0.75;0.40;;;20.70;99.90;;;;;;5020551;28;20042;-81
2022/06/24 10:09:26;;;;;;;0.40;0.40;;;20.70;99.90;;;;;;5051884;28;20045;-81
2022/06/24 10:11:57;;;;;;;1.05;0.68;;;20.80;99.90;;;;;;5051785;28;20449;-84
2022/06/24 10:14:26;;;;;;;0.80;0.52;;;20.90;99.90;;;;;;5061427;28;20862;-84
2022/06/24 10:16:53;;;;;;;0.60;0.47;;;21.00;99.90;;;;;;5066855;28;20127;-82
2022/06/24 10:19:26;;;;;;;0.38;0.38;;;21.10;99.90;;;;;;5032151;28;20046;-82
2022/06/24 10:21:53;;;;;;;0.30;0.30;;;21.20;99.90;;;;;;5050681;28;20046;-81
2022/06/24 10:24:20;;;;;;;0.60;0.57;;;21.40;99.90;;;;;;5061638;28;20037;-84
2022/06/24 10:26:51;;;;;;;0.65;0.50;;;21.50;99.90;;;;;;5015935;28;20499;-84
2022/06/24 10:29:20;;;;;;;0.60;0.50;;;21.40;99.90;;;;;;5042662;28;20128;-82
2022/06/24 10:31:54;;;;;;;0.40;0.40;;;21.40;99.90;;;;;;5015885;28;20560;-84
2022/06/24 10:34:20;;;;;;;0.22;0.22;;;21.50;99.90;;;;;;5036132;28;20038;-85
2022/06/24 10:36:50;;;;;;;0.85;0.60;;;21.60;99.90;;;;;;5047926;28;20077;-84
2022/06/24 10:39:22;;;;;;;0.95;0.60;;;21.60;99.90;;;;;;5047494;28;20042;-84
2022/06/24 10:42:21;;;;;;;0.65;0.50;;;21.60;99.90;;;;;;5034049;28;20041;-82
2022/06/24 10:45:05;;;;;;;0.30;0.30;;;21.50;99.90;;;;;;5013038;28;20057;-82
2022/06/24 10:47:34;;;;;;;0.70;0.57;;;21.40;99.90;;;;;;5029569;28;20041;-81
2022/06/24 10:50:02;;;;;;;0.85;0.65;;;21.30;99.90;;;;;;5053240;28;20124;-82
2022/06/24 10:52:47;;;;;;;0.40;0.40;;;21.20;99.90;;;;;;5048212;28;20041;-82
2022/06/24 10:55:17;;;;;;;0.40;0.40;;;21.10;99.90;;;;;;5031748;28;20046;-82
2022/06/24 10:58:05;;;;;;;0.50;0.30;;;21.00;99.90;;;;;;5062270;28;20081;-85
2022/06/24 11:00:38;;;;;;;0.32;0.30;;;20.90;99.90;;;;;;5066893;28;20099;-85
2022/06/24 11:03:04;;;;;;;0.25;0.25;;;20.60;99.90;;;;;;5028865;28;20038;-85
2022/06/24 11:05:34;;;;;;;0.00;0.00;;;20.30;99.90;;;;;;5030241;28;20635;-81
2022/06/24 11:08:02;;;;;;;0.10;0.10;;;20.10;99.90;;;;;;5047357;28;20042;-85
2022/06/24 11:10:31;;;;;;;0.00;0.00;;;19.90;99.90;;;;;;5041545;28;20045;-81
2022/06/24 11:13:02;;;;;;;0.22;0.20;;;19.50;99.90;;;;;;5034918;28;20379;-85
2022/06/24 11:15:47;;;;;;;0.00;0.00;;;19.20;99.90;;;;;;5051217;28;20109;-81
2022/06/24 11:18:19;;;;;;;0.10;0.10;;;18.90;99.90;;;;;;5078161;28;20041;-85
2022/06/24 11:20:52;;;;;;;0.20;0.20;;;18.60;99.90;;;;;;5050186;28;20069;-85
2022/06/24 11:23:21;;;;;;;0.10;0.10;;;18.50;99.90;;;;;;5068825;28;20033;-81
2022/06/24 11:25:55;;;;;;;0.00;0.00;;;18.20;99.90;;;;;;5058980;28;20521;-88
2022/06/24 11:28:28;;;;;;;0.35;0.35;;;18.20;99.90;;;;;;5047281;28;20042;-82
2022/06/24 11:31:12;;;;;;;0.00;0.00;;;18.10;99.90;;;;;;5030989;28;20674;-86
2022/06/24 11:33:38;;;;;;;0.00;0.00;;;18.10;99.90;;;;;;5011535;28;20447;-82
2022/06/24 11:36:07;;;;;;;0.00;0.00;;;18.10;99.90;;;;;;5027919;28;20095;-86
2022/06/24 11:38:36;;;;;;;0.00;0.00;;;18.10;99.90;;;;;;5046172;28;20406;-86
2022/06/24 11:41:02;;;;;;;0.10;0.10;;;18.10;99.90;;;;;;5027357;28;20046;-82
2022/06/24 11:43:29;;;;;;;0.20;0.20;;;18.10;99.90;;;;;;5014300;28;20045;-86
2022/06/24 11:46:00;;;;;;;0.03;0.03;;;18.10;99.90;;;;;;5014138;28;20037;-85
2022/06/24 11:48:27;;;;;;;0.00;0.00;;;18.20;99.90;;;;;;5014879;28;20034;-82
2022/06/24 11:50:54;;;;;;;0.00;0.00;;;18.20;99.90;;;;;;5012863;28;20038;-86
2022/06/24 11:53:25;;;;;;;0.00;0.00;;;18.20;99.90;;;;;;5010772;28;20097;-82
2022/06/24 11:55:54;;;;;;;0.00;0.00;;;18.20;99.90;;;;;;5043528;28;20034;-81
2022/06/24 11:58:22;;;;;;;0.03;0.03;;;18.20;99.90;;;;;;5062039;28;20045;-86
2022/06/24 12:00:53;;;;;;;0.20;0.10;;;18.20;99.90;;;;;;5066353;28;20529;-84
2022/06/24 12:03:21;;;;;;;0.00;0.00;;;18.20;99.90;;;;;;5049888;28;20410;-82
2022/06/24 12:05:48;;;;;;;0.00;0.00;;;18.20;99.90;;;;;;5033503;28;20037;-83
2022/06/24 12:08:15;;;;;;;0.00;0.00;;;18.20;99.90;;;;;;5049777;28;20044;-82
2022/06/24 12:10:54;;;;;;;0.08;0.08;;;18.20;99.90;;;;;;5079240;28;20049;-83
2022/06/24 12:13:30;;;;;;;0.00;0.00;;;18.30;99.90;;;;;;5062464;28;20038;-81
2022/06/24 12:15:58;;;;;;;0.20;0.20;;;18.30;99.90;;;;;;5046310;28;20372;-84
2022/06/24 12:18:26;;;;;;;0.13;0.10;;;18.30;99.90;;;;;;5062803;28;20100;-84
2022/06/24 12:21:00;;;;;;;0.00;0.00;;;18.30;99.90;;;;;;5055553;28;20083;-84
2022/06/24 12:23:36;;;;;;;0.10;0.10;;;18.30;99.90;;;;;;5029810;28;20049;-84
2022/06/24 12:26:16;;;;;;;0.05;0.05;;;18.30;99.90;;;;;;5029777;28;20132;-81
2022/06/24 12:28:43;;;;;;;0.00;0.00;;;18.30;99.90;;;;;;5029777;28;20108;-81
2022/06/24 12:31:12;;;;;;;0.13;0.13;;;18.30;99.90;;;;;;5051189;28;20083;-83
2022/06/24 12:33:49;;;;;;;0.10;0.10;;;18.30;99.90;;;;;;5044745;28;20498;-81
2022/06/24 12:36:19;;;;;;;0.00;0.00;;;18.40;99.90;;;;;;5029488;28;20045;-81
2022/06/24 12:38:52;;;;;;;0.10;0.10;;;18.30;99.90;;;;;;5029516;28;20042;-81
2022/06/24 12:41:20;;;;;;;0.22;0.22;;;18.40;99.90;;;;;;5029210;28;20073;-81
2022/06/24 12:44:01;;;;;;;0.10;0.10;;;18.40;99.90;;;;;;5014140;28;20033;-81
2022/06/24 12:46:34;;;;;;;0.25;0.10;;;18.50;99.90;;;;;;5029610;28;20487;-83
2022/06/24 12:52:07;;;;;;;0.00;0.00;;;18.60;99.90;;;;;;5050938;28;20053;-81
2022/06/24 12:54:33;;;;;;;0.20;0.20;;;18.60;99.90;;;;;;5013459;28;20068;-81
2022/06/24 12:57:00;;;;;;;0.10;0.10;;;18.60;99.90;;;;;;5013544;28;20052;-81
2022/06/24 12:59:30;;;;;;;0.10;0.10;;;18.70;99.90;;;;;;5061898;28;20046;-81
2022/06/24 13:01:58;;;;;;;0.00;0.00;;;18.80;99.90;;;;;;5058795;28;20038;-81
2022/06/24 13:04:25;;;;;;;0.10;0.10;;;18.80;99.90;;;;;;5058501;28;20034;-81
2022/06/24 13:06:52;;;;;;;0.10;0.10;;;18.90;99.90;;;;;;5045720;28;20038;-84
2022/06/24 13:09:20;;;;;;;0.10;0.10;;;18.90;99.90;;;;;;5045984;28;20128;-83
2022/06/24 13:11:46;;;;;;;0.20;0.20;;;18.90;99.90;;;;;;5045752;28;20434;-84
2022/06/24 13:14:13;;;;;;;0.10;0.10;;;18.90;99.90;;;;;;5045383;28;20046;-81